Weather History for KCLK - November, 2013

Change the Weather History Date:

Saturday, November 23, 2013

  Actual Average (KCSM) Record (KCSM)
Temperature  
Mean Temperature 34 °F -  
Max Temperature 37 °F 55 °F 77 °F (2005)
Min Temperature 30 °F 34 °F 21 °F (2003)
Degree Days  
Heating Degree Days 32    
Moisture  
Dew Point 15 °F    
Average Humidity 50    
Maximum Humidity 64    
Minimum Humidity 28    
Precipitation  
Precipitation 0.00 in - - ()
Sea Level Pressure  
Sea Level Pressure 30.63 in    
Wind  
Wind Speed 15 mph (NNE)    
Max Wind Speed 20 mph    
Max Gust Speed 25 mph    
Visibility 10 miles    
Events      
Averages and records for this station are not official NWS values.
T = Trace of Precipitation, MM = Missing Value Source: NWS Daily Summary

Daily Weather History Graph

Daily Weather History Graph

Search for Another Location

Airport or City:

Trip Planner

Search our weather history database for the weather conditions in past years. The results will help you decide how hot, cold, wet, or windy it might be!

Date:

Astronomy

Nov. 23, 2013 Rise Set
Actual Time 7:19 AM CST 5:24 PM CST
Civil Twilight 6:51 AM CST 5:52 PM CST
Nautical Twilight 6:20 AM CST 6:23 PM CST
Astronomical Twilight 5:50 AM CST 6:54 PM CST
Moon 10:50 PM CST (11/23) 11:41 AM CST (11/23)
Length of Visible Light 11h 00m
Length of Day
10h 05m
Waning Gibbous, 69% of the Moon is Illuminated
Nov 23
Waning Gibbous
Nov 25
Last Quarter
Dec 2
New
Dec 9
First Quarter
Dec 17
Full

Hourly Weather History & Observations

Time (CST) Temp. Windchill Dew Point Humidity Pressure Visibility Wind Dir Wind Speed Gust Speed Precip Events Conditions
12:15 AM 30.2 °F 18.9 °F 19.4 °F 64% 30.58 in 10.0 mi North 16.1 mph - N/A   Overcast
12:35 AM 30.2 °F 20.8 °F 17.6 °F 60% 30.58 in 10.0 mi North 11.5 mph - N/A   Overcast
12:55 AM 30.2 °F 19.3 °F 17.6 °F 60% 30.58 in 10.0 mi North 15.0 mph 18.4 mph N/A   Overcast
1:15 AM 30.2 °F 19.8 °F 17.6 °F 60% 30.58 in 10.0 mi North 13.8 mph - N/A   Overcast
1:35 AM 30.2 °F 18.5 °F 17.6 °F 60% 30.56 in 10.0 mi North 17.3 mph 21.9 mph N/A   Overcast
1:55 AM 30.2 °F 18.5 °F 17.6 °F 60% 30.56 in 10.0 mi North 17.3 mph - N/A   Overcast
2:15 AM 30.2 °F 18.9 °F 15.8 °F 55% 30.58 in 10.0 mi North 16.1 mph - N/A   Overcast
2:35 AM 30.2 °F 19.8 °F 17.6 °F 60% 30.58 in 10.0 mi North 13.8 mph - N/A   Overcast
2:55 AM 30.2 °F 18.9 °F 17.6 °F 60% 30.58 in 10.0 mi North 16.1 mph - N/A   Overcast
3:15 AM 30.2 °F 18.5 °F 17.6 °F 60% 30.58 in 10.0 mi North 17.3 mph - N/A   Overcast
3:35 AM 30.2 °F 18.9 °F 17.6 °F 60% 30.58 in 10.0 mi North 16.1 mph 23.0 mph N/A   Overcast
3:55 AM 30.2 °F 18.9 °F 17.6 °F 60% 30.58 in 10.0 mi North 16.1 mph 19.6 mph N/A   Overcast
4:15 AM 30.2 °F 18.9 °F 17.6 °F 60% 30.58 in 10.0 mi North 16.1 mph - N/A   Overcast
4:35 AM 30.2 °F 19.8 °F 19.4 °F 64% 30.59 in 10.0 mi North 13.8 mph - N/A   Overcast
4:55 AM 30.2 °F 20.2 °F 19.4 °F 64% 30.59 in 10.0 mi North 12.7 mph - N/A   Overcast
5:15 AM 30.2 °F 20.8 °F 19.4 °F 64% 30.60 in 10.0 mi North 11.5 mph - N/A   Overcast
5:35 AM 30.2 °F 21.9 °F 19.4 °F 64% 30.61 in 10.0 mi North 9.2 mph - N/A   Overcast
5:55 AM 30.2 °F 20.8 °F 17.6 °F 60% 30.61 in 10.0 mi North 11.5 mph - N/A   Overcast
6:15 AM 32.0 °F 21.6 °F 15.8 °F 51% 30.61 in 10.0 mi North 15.0 mph 18.4 mph N/A   Overcast
6:35 AM 32.0 °F 22.1 °F 15.8 °F 51% 30.61 in 10.0 mi North 13.8 mph - N/A   Overcast
6:55 AM 32.0 °F 21.6 °F 15.8 °F 51% 30.61 in 10.0 mi North 15.0 mph - N/A   Overcast
7:15 AM 32.0 °F 22.1 °F 14.0 °F 48% 30.61 in 10.0 mi North 13.8 mph - N/A   Overcast
7:35 AM 32.0 °F 21.2 °F 14.0 °F 48% 30.63 in 10.0 mi North 16.1 mph - N/A   Overcast
7:55 AM 32.0 °F 22.1 °F 14.0 °F 48% 30.63 in 10.0 mi North 13.8 mph - N/A   Overcast
8:15 AM 32.0 °F 22.5 °F 12.2 °F 44% 30.64 in 10.0 mi North 12.7 mph - N/A   Overcast
8:35 AM 32.0 °F 21.6 °F 12.2 °F 44% 30.65 in 10.0 mi North 15.0 mph 18.4 mph N/A   Overcast
8:55 AM 32.0 °F 22.5 °F 12.2 °F 44% 30.65 in 10.0 mi NNE 12.7 mph - N/A   Overcast
9:15 AM 32.0 °F 22.1 °F 8.6 °F 38% 30.66 in 10.0 mi North 13.8 mph - N/A   Overcast
9:35 AM 32.0 °F 21.6 °F 8.6 °F 38% 30.66 in 10.0 mi NNE 15.0 mph - N/A   Overcast
9:55 AM 32.0 °F 22.1 °F 6.8 °F 35% 30.67 in 10.0 mi NNE 13.8 mph - N/A   Overcast
10:15 AM 33.8 °F 23.9 °F 8.6 °F 35% 30.67 in 10.0 mi NNE 15.0 mph - N/A   Overcast
10:35 AM 33.8 °F 23.5 °F 6.8 °F 32% 30.68 in 10.0 mi NNE 16.1 mph - N/A   Overcast
10:55 AM 33.8 °F 23.2 °F 5.0 °F 30% 30.68 in 10.0 mi NNE 17.3 mph 24.2 mph N/A   Overcast
11:15 AM 35.6 °F 25.5 °F 5.0 °F 28% 30.68 in 10.0 mi NNE 17.3 mph - N/A   Overcast
11:35 AM 35.6 °F 26.2 °F 6.8 °F 30% 30.67 in 10.0 mi NNE 15.0 mph - N/A   Overcast
11:55 AM 35.6 °F 26.2 °F 6.8 °F 30% 30.67 in 10.0 mi NNE 15.0 mph - N/A   Overcast
12:15 PM 35.6 °F 26.2 °F 5.0 °F 28% 30.66 in 10.0 mi NNE 15.0 mph - N/A   Overcast
12:35 PM 35.6 °F 25.5 °F 5.0 °F 28% 30.66 in 10.0 mi NNE 17.3 mph - N/A   Overcast
12:55 PM 37.4 °F 27.8 °F 8.6 °F 30% 30.65 in 10.0 mi NNE 17.3 mph - N/A   Overcast
1:15 PM 37.4 °F 28.2 °F 10.4 °F 33% 30.64 in 10.0 mi NNE 16.1 mph - N/A   Overcast
1:35 PM 37.4 °F 28.2 °F 12.2 °F 36% 30.64 in 10.0 mi NNE 16.1 mph - N/A   Overcast
1:55 PM 37.4 °F 27.2 °F 10.4 °F 33% 30.63 in 10.0 mi NNE 19.6 mph 25.3 mph N/A   Overcast
2:15 PM 37.4 °F 27.2 °F 12.2 °F 36% 30.61 in 10.0 mi NNE 19.6 mph 25.3 mph N/A   Overcast
2:35 PM 37.4 °F 27.8 °F 12.2 °F 36% 30.63 in 10.0 mi NNE 17.3 mph - N/A   Mostly Cloudy
2:55 PM 37.4 °F 28.2 °F 14.0 °F 38% 30.63 in 10.0 mi NNE 16.1 mph - N/A   Overcast
3:15 PM 37.4 °F 27.8 °F 17.6 °F 45% 30.62 in 10.0 mi NNE 17.3 mph - N/A   Overcast
3:35 PM 37.4 °F 27.8 °F 15.8 °F 41% 30.61 in 10.0 mi NNE 17.3 mph - N/A   Overcast
3:55 PM 37.4 °F 28.2 °F 17.6 °F 45% 30.62 in 10.0 mi NNE 16.1 mph - N/A   Overcast
4:15 PM 35.6 °F 25.5 °F 15.8 °F 44% 30.63 in 10.0 mi NNE 17.3 mph - N/A   Overcast
4:35 PM 35.6 °F 24.8 °F 17.6 °F 48% 30.62 in 10.0 mi NE 19.6 mph 24.2 mph N/A   Mostly Cloudy
4:55 PM 35.6 °F 25.5 °F 19.4 °F 52% 30.62 in 10.0 mi NNE 17.3 mph - N/A   Mostly Cloudy
5:15 PM 35.6 °F 26.2 °F 19.4 °F 52% 30.63 in 10.0 mi NNE 15.0 mph 23.0 mph N/A   Overcast
5:35 PM 35.6 °F 27.1 °F 19.4 °F 52% 30.63 in 10.0 mi NNE 12.7 mph 20.7 mph N/A   Overcast
5:55 PM 35.6 °F 26.6 °F 19.4 °F 52% 30.63 in 10.0 mi NNE 13.8 mph 19.6 mph N/A   Overcast
6:15 PM 33.8 °F 24.3 °F 21.2 °F 60% 30.63 in 10.0 mi NNE 13.8 mph - N/A   Overcast
6:35 PM 33.8 °F 23.2 °F 21.2 °F 60% 30.63 in 10.0 mi NNE 17.3 mph - N/A   Overcast
6:55 PM 33.8 °F 23.9 °F 21.2 °F 60% 30.65 in 10.0 mi NNE 15.0 mph 21.9 mph N/A   Overcast
7:15 PM 33.8 °F 23.9 °F 21.2 °F 60% 30.65 in 10.0 mi NNE 15.0 mph - N/A   Overcast
7:35 PM 33.8 °F 23.9 °F 21.2 °F 60% 30.65 in 10.0 mi NNE 15.0 mph 18.4 mph N/A   Overcast
7:55 PM 33.8 °F 23.5 °F 19.4 °F 56% 30.64 in 10.0 mi NNE 16.1 mph 24.2 mph N/A   Overcast
8:15 PM 32.0 °F 20.8 °F 19.4 °F 60% 30.64 in 10.0 mi NNE 17.3 mph 20.7 mph N/A   Overcast
8:35 PM 32.0 °F 21.2 °F 19.4 °F 60% 30.64 in 10.0 mi NNE 16.1 mph 23.0 mph N/A   Overcast
8:55 PM 32.0 °F 20.8 °F 17.6 °F 55% 30.63 in 10.0 mi NE 17.3 mph - N/A   Overcast
9:15 PM 32.0 °F 20.8 °F 17.6 °F 55% 30.63 in 10.0 mi NNE 17.3 mph - N/A   Scattered Clouds
9:35 PM 32.0 °F 20.5 °F 17.6 °F 55% 30.63 in 10.0 mi NE 18.4 mph 21.9 mph N/A   Clear
9:55 PM 32.0 °F 21.2 °F 17.6 °F 55% 30.63 in 10.0 mi NNE 16.1 mph - N/A   Scattered Clouds
10:15 PM 32.0 °F 21.6 °F 17.6 °F 55% 30.64 in 10.0 mi NNE 15.0 mph - N/A   Mostly Cloudy
10:35 PM 32.0 °F 21.6 °F 17.6 °F 55% 30.65 in 10.0 mi NNE 15.0 mph - N/A   Mostly Cloudy
10:55 PM 32.0 °F 22.1 °F 17.6 °F 55% 30.64 in 10.0 mi NNE 13.8 mph - N/A   Scattered Clouds
11:15 PM 32.0 °F 22.5 °F 17.6 °F 55% 30.64 in 10.0 mi NNE 12.7 mph - N/A   Scattered Clouds
11:35 PM 32.0 °F 21.6 °F 15.8 °F 51% 30.63 in 10.0 mi NNE 15.0 mph - N/A   Scattered Clouds
11:55 PM 32.0 °F 21.2 °F 14.0 °F 48% 30.63 in 10.0 mi NNE 16.1 mph - N/A   Mostly Cloudy